Time;durP1;ratioP1;P1;durP2;ratioP2;P2;SDS_P1;SDS_P2;PMS_P1;PMS_P2;Temp;Humidity;BMP_temperature;BMP_pressure;BME280_temperature;BME280_humidity;BME280_pressure;Samples;Min_cycle;Max_cycle;Signal;HPM_P1;HPM_P2
2021/11/08 00:01:56;;;;;;;13.35;8.75;;;;;;;;;;5090190;28;20111;-70
2021/11/08 00:04:22;;;;;;;14.48;8.50;;;;;;;;;;5089858;28;20020;-70
2021/11/08 00:06:51;;;;;;;14.63;7.97;;;;;;;;;;5090233;28;20032;-69
2021/11/08 00:09:18;;;;;;;14.10;8.57;;;;;;;;;;5090010;28;20108;-69
2021/11/08 00:11:45;;;;;;;14.60;7.80;;;;;;;;;;5090027;28;20384;-69
2021/11/08 00:14:14;;;;;;;16.52;8.85;;;;;;;;;;5090196;28;20413;-69
2021/11/08 00:16:53;;;;;;;17.30;8.63;;;;;;;;;;5089825;28;20036;-69
2021/11/08 00:22:04;;;;;;;17.92;10.85;;;;;;;;;;5090023;28;20495;-69
2021/11/08 00:24:32;;;;;;;19.13;10.80;;;;;;;;;;5088505;28;20028;-69
2021/11/08 00:26:59;;;;;;;13.73;9.48;;;;;;;;;;5089701;28;20058;-70
2021/11/08 00:29:25;;;;;;;14.05;9.00;;;;;;;;;;5089560;28;20031;-69
2021/11/08 00:31:52;;;;;;;19.77;9.73;;;;;;;;;;5089204;28;20067;-69
2021/11/08 00:34:19;;;;;;;15.40;9.13;;;;;;;;;;5088476;28;20147;-69
2021/11/08 00:36:45;;;;;;;17.85;9.82;;;;;;;;;;5109330;28;20068;-69
2021/11/08 00:39:11;;;;;;;16.25;9.18;;;;;;;;;;5109451;28;20020;-69
2021/11/08 00:41:38;;;;;;;20.50;11.68;;;;;;;;;;5109870;28;20016;-69
2021/11/08 00:44:04;;;;;;;20.65;11.98;;;;;;;;;;5091353;28;20024;-69
2021/11/08 00:46:30;;;;;;;19.27;10.55;;;;;;;;;;5104977;28;20451;-69
2021/11/08 00:48:57;;;;;;;18.02;10.68;;;;;;;;;;5096169;28;20035;-69
2021/11/08 00:51:23;;;;;;;23.23;9.95;;;;;;;;;;5096068;28;20024;-69
2021/11/08 00:53:50;;;;;;;16.75;9.05;;;;;;;;;;5095662;28;20566;-69
2021/11/08 00:56:21;;;;;;;19.55;9.82;;;;;;;;;;5095744;28;20031;-69
2021/11/08 00:58:48;;;;;;;22.20;10.55;;;;;;;;;;5096210;28;20024;-69
2021/11/08 01:01:22;;;;;;;21.42;10.40;;;;;;;;;;5095494;28;20028;-69
2021/11/08 01:03:49;;;;;;;17.52;10.00;;;;;;;;;;5095924;28;20143;-70
2021/11/08 01:06:19;;;;;;;26.83;13.95;;;;;;;;;;5077259;28;20028;-70
2021/11/08 01:08:46;;;;;;;24.30;15.25;;;;;;;;;;5095838;28;20472;-69
2021/11/08 01:11:13;;;;;;;20.45;13.30;;;;;;;;;;5077508;28;20388;-69
2021/11/08 01:13:40;;;;;;;22.63;11.60;;;;;;;;;;5095104;28;20031;-69
2021/11/08 01:16:06;;;;;;;18.42;10.68;;;;;;;;;;5095607;28;20036;-71
2021/11/08 01:18:33;;;;;;;20.60;12.23;;;;;;;;;;5095768;28;20016;-69
2021/11/08 01:20:59;;;;;;;21.65;11.00;;;;;;;;;;5095432;28;20031;-70
2021/11/08 01:23:26;;;;;;;21.42;11.00;;;;;;;;;;5095587;28;20048;-69
2021/11/08 01:25:58;;;;;;;20.08;10.80;;;;;;;;;;5095523;28;20030;-69
2021/11/08 01:28:32;;;;;;;22.60;9.68;;;;;;;;;;5095007;28;20047;-69
2021/11/08 01:30:58;;;;;;;37.78;20.77;;;;;;;;;;5095678;28;20024;-69
2021/11/08 01:33:25;;;;;;;39.10;18.23;;;;;;;;;;5095304;28;20023;-69
2021/11/08 01:36:09;;;;;;;29.85;16.70;;;;;;;;;;5094654;28;20108;-69
2021/11/08 01:38:47;;;;;;;23.10;13.65;;;;;;;;;;5095132;28;20050;-69
2021/11/08 01:41:14;;;;;;;21.77;12.90;;;;;;;;;;5095148;28;20095;-69
2021/11/08 01:43:41;;;;;;;21.48;12.18;;;;;;;;;;5094597;28;20020;-69
2021/11/08 01:46:07;;;;;;;18.67;11.85;;;;;;;;;;5095055;28;20387;-68
2021/11/08 01:48:34;;;;;;;19.23;11.10;;;;;;;;;;5094539;28;20020;-68
2021/11/08 01:51:00;;;;;;;15.25;9.43;;;;;;;;;;5094835;28;20080;-68
2021/11/08 01:53:27;;;;;;;16.30;10.93;;;;;;;;;;5094753;28;20044;-68
2021/11/08 01:55:54;;;;;;;19.45;10.23;;;;;;;;;;5094436;28;20467;-69
2021/11/08 01:58:21;;;;;;;13.82;9.15;;;;;;;;;;5093717;28;20020;-68
2021/11/08 02:00:48;;;;;;;16.52;9.38;;;;;;;;;;5094912;28;20024;-68
2021/11/08 02:03:16;;;;;;;13.25;8.45;;;;;;;;;;5094403;28;20046;-70
2021/11/08 02:05:42;;;;;;;22.95;10.02;;;;;;;;;;5094829;28;20052;-69
2021/11/08 02:08:09;;;;;;;17.45;10.60;;;;;;;;;;5094638;28;20016;-69
2021/11/08 02:10:35;;;;;;;22.42;11.40;;;;;;;;;;5094147;28;20021;-68
2021/11/08 02:13:02;;;;;;;21.35;11.15;;;;;;;;;;5094544;28;20015;-69
2021/11/08 02:15:28;;;;;;;21.30;10.68;;;;;;;;;;5094241;28;20077;-69
2021/11/08 02:17:55;;;;;;;15.45;9.38;;;;;;;;;;5094089;28;20020;-69
2021/11/08 02:20:26;;;;;;;19.05;9.93;;;;;;;;;;5094404;28;20042;-69
2021/11/08 02:22:53;;;;;;;16.45;8.25;;;;;;;;;;5094193;28;20012;-69
2021/11/08 02:25:20;;;;;;;12.77;8.27;;;;;;;;;;5093819;28;20107;-69
2021/11/08 02:27:47;;;;;;;16.05;9.48;;;;;;;;;;5094127;28;20016;-68
2021/11/08 02:30:14;;;;;;;17.63;9.65;;;;;;;;;;5094146;28;20017;-68
2021/11/08 02:32:41;;;;;;;17.25;8.68;;;;;;;;;;5093766;28;20024;-68
2021/11/08 02:35:09;;;;;;;14.00;7.40;;;;;;;;;;5094056;28;20048;-69
2021/11/08 02:37:35;;;;;;;11.60;7.20;;;;;;;;;;5093964;28;20423;-69
2021/11/08 02:40:06;;;;;;;13.27;8.18;;;;;;;;;;5093593;28;20104;-70
2021/11/08 02:42:32;;;;;;;13.70;8.30;;;;;;;;;;5094001;28;20024;-69
2021/11/08 02:44:59;;;;;;;16.50;7.55;;;;;;;;;;5094439;28;20388;-68
2021/11/08 02:47:25;;;;;;;12.93;7.35;;;;;;;;;;5093830;28;20472;-69
2021/11/08 02:49:54;;;;;;;15.63;7.45;;;;;;;;;;5093817;28;20024;-70
2021/11/08 02:52:24;;;;;;;15.63;7.63;;;;;;;;;;5093601;28;20093;-69
2021/11/08 02:54:52;;;;;;;19.02;8.32;;;;;;;;;;5093802;28;20024;-68
2021/11/08 02:57:21;;;;;;;18.80;9.07;;;;;;;;;;5093639;28;20047;-69
2021/11/08 02:59:48;;;;;;;19.33;10.85;;;;;;;;;;5075007;28;20032;-68
2021/11/08 03:02:16;;;;;;;24.42;11.88;;;;;;;;;;5093657;28;20051;-69
2021/11/08 03:04:45;;;;;;;18.70;11.63;;;;;;;;;;5075668;28;20446;-69
2021/11/08 03:07:12;;;;;;;16.15;10.68;;;;;;;;;;5093053;28;20024;-69
2021/11/08 03:09:40;;;;;;;18.05;10.07;;;;;;;;;;5093146;28;20028;-68
2021/11/08 03:12:10;;;;;;;18.23;10.43;;;;;;;;;;5093548;28;20036;-68
2021/11/08 03:14:43;;;;;;;14.80;9.27;;;;;;;;;;5074762;28;20103;-68
2021/11/08 03:17:13;;;;;;;15.40;9.57;;;;;;;;;;5075143;28;20581;-68
2021/11/08 03:19:42;;;;;;;16.25;9.55;;;;;;;;;;5093304;28;20099;-68
2021/11/08 03:22:15;;;;;;;16.45;10.02;;;;;;;;;;5093137;28;20384;-68
2021/11/08 03:24:55;;;;;;;17.17;9.75;;;;;;;;;;5075250;28;20157;-68
2021/11/08 03:27:29;;;;;;;17.40;9.05;;;;;;;;;;5092964;28;20024;-68
2021/11/08 03:29:55;;;;;;;15.55;8.57;;;;;;;;;;5093319;28;20093;-68
2021/11/08 03:32:22;;;;;;;18.08;10.25;;;;;;;;;;5092983;28;20035;-68
2021/11/08 03:35:03;;;;;;;20.27;12.38;;;;;;;;;;5092309;28;20052;-68
2021/11/08 03:37:33;;;;;;;22.30;15.68;;;;;;;;;;5074784;28;20020;-68
2021/11/08 03:39:59;;;;;;;20.67;11.82;;;;;;;;;;5093117;28;20036;-70
2021/11/08 03:42:25;;;;;;;19.45;13.85;;;;;;;;;;5092564;28;20028;-68
2021/11/08 03:44:52;;;;;;;30.63;16.83;;;;;;;;;;5093596;28;20089;-68
2021/11/08 03:47:18;;;;;;;23.27;15.50;;;;;;;;;;5092973;28;20024;-69
2021/11/08 03:49:44;;;;;;;22.83;13.77;;;;;;;;;;5092695;28;20027;-68
2021/11/08 03:52:10;;;;;;;20.38;13.30;;;;;;;;;;5074825;28;20087;-68
2021/11/08 03:54:36;;;;;;;21.42;11.68;;;;;;;;;;5092818;28;20025;-70
2021/11/08 03:57:03;;;;;;;17.27;11.30;;;;;;;;;;5092649;28;20079;-68
2021/11/08 03:59:29;;;;;;;18.13;11.27;;;;;;;;;;5092903;28;20077;-68
2021/11/08 04:01:55;;;;;;;20.05;10.95;;;;;;;;;;5092849;28;20024;-68
2021/11/08 04:04:21;;;;;;;20.38;12.25;;;;;;;;;;5092477;28;20066;-68
2021/11/08 04:06:47;;;;;;;24.67;12.95;;;;;;;;;;5092740;28;20337;-67
2021/11/08 04:09:15;;;;;;;24.88;13.48;;;;;;;;;;5092475;28;20024;-68
2021/11/08 04:11:43;;;;;;;30.20;12.45;;;;;;;;;;5092746;28;20031;-68
2021/11/08 04:14:10;;;;;;;21.15;13.50;;;;;;;;;;5074633;28;20479;-68
2021/11/08 04:16:39;;;;;;;21.40;13.98;;;;;;;;;;5092439;28;20571;-68
2021/11/08 04:19:05;;;;;;;19.75;11.75;;;;;;;;;;5092658;28;20073;-68
2021/11/08 04:21:33;;;;;;;20.75;10.77;;;;;;;;;;5093218;28;20028;-67
2021/11/08 04:23:59;;;;;;;13.95;8.50;;;;;;;;;;5096204;28;20024;-68
2021/11/08 04:26:28;;;;;;;12.50;7.22;;;;;;;;;;5096402;28;20048;-68
2021/11/08 04:29:00;;;;;;;13.80;7.97;;;;;;;;;;5078109;28;20025;-68
2021/11/08 04:31:28;;;;;;;11.85;8.10;;;;;;;;;;5096101;28;20020;-68
2021/11/08 04:34:00;;;;;;;17.20;9.10;;;;;;;;;;5096257;28;20023;-68
2021/11/08 04:51:59;;;;;;;17.30;9.38;;;;;;;;;;5095968;28;20434;-68
2021/11/08 04:57:24;;;;;;;17.65;11.00;;;;;;;;;;5096047;28;20035;-68
2021/11/08 05:25:02;;;;;;;19.23;9.50;;;;;;;;;;5095768;28;20035;-69
2021/11/08 05:30:14;;;;;;;20.17;12.15;;;;;;;;;;5095808;28;20089;-70
2021/11/08 05:32:45;;;;;;;23.20;13.98;;;;;;;;;;5095474;28;20044;-69
2021/11/08 05:35:12;;;;;;;28.85;16.58;;;;;;;;;;5095024;28;20048;-70
2021/11/08 05:37:42;;;;;;;27.98;16.95;;;;;;;;;;5077123;28;20024;-69
2021/11/08 05:40:11;;;;;;;36.53;20.73;;;;;;;;;;5095511;28;20113;-70
2021/11/08 05:42:38;;;;;;;39.92;24.02;;;;;;;;;;5095349;28;20080;-71
2021/11/08 05:45:06;;;;;;;37.75;23.80;;;;;;;;;;5095006;28;20016;-68
2021/11/08 05:47:32;;;;;;;36.45;22.50;;;;;;;;;;5095140;28;20034;-69
2021/11/08 05:49:59;;;;;;;39.25;23.92;;;;;;;;;;5094537;28;20016;-68
2021/11/08 05:52:25;;;;;;;41.80;25.23;;;;;;;;;;5076640;28;20077;-68
2021/11/08 05:54:52;;;;;;;41.58;26.17;;;;;;;;;;5094878;28;20080;-68
2021/11/08 06:50:06;;;;;;;22.45;12.95;;;;;;;;;;5093905;28;20546;-70
2021/11/08 06:52:33;;;;;;;21.10;14.07;;;;;;;;;;5069425;28;20064;-68
2021/11/08 06:55:01;;;;;;;24.67;15.20;;;;;;;;;;5085682;28;20112;-68
2021/11/08 06:57:42;;;;;;;34.72;20.45;;;;;;;;;;5110942;28;20059;-68
2021/11/08 07:00:09;;;;;;;36.03;20.63;;;;;;;;;;5110137;28;20130;-66
2021/11/08 07:05:13;;;;;;;47.00;25.70;;;;;;;;;;5091525;27;20401;-68
2021/11/08 07:07:40;;;;;;;45.10;25.00;;;;;;;;;;5105738;28;20043;-70
2021/11/08 07:10:07;;;;;;;41.25;23.83;;;;;;;;;;5107437;28;20111;-71
2021/11/08 07:12:33;;;;;;;37.05;21.15;;;;;;;;;;5095009;28;20031;-70
2021/11/08 07:15:00;;;;;;;35.75;22.27;;;;;;;;;;5084723;28;20023;-69
2021/11/08 07:17:26;;;;;;;36.83;22.85;;;;;;;;;;5094204;28;20292;-69
2021/11/08 07:19:53;;;;;;;45.80;23.42;;;;;;;;;;5092290;28;20098;-68
2021/11/08 07:22:20;;;;;;;33.83;21.27;;;;;;;;;;5108509;28;20020;-66
2021/11/08 07:24:46;;;;;;;33.95;18.50;;;;;;;;;;5102574;28;20046;-68
2021/11/08 07:27:13;;;;;;;31.05;18.42;;;;;;;;;;5096322;28;20396;-68
2021/11/08 07:29:39;;;;;;;31.95;18.67;;;;;;;;;;5091772;28;20054;-68
2021/11/08 07:32:06;;;;;;;23.33;15.48;;;;;;;;;;5103185;28;20028;-68
2021/11/08 07:34:33;;;;;;;22.52;15.45;;;;;;;;;;5103296;28;20039;-68
2021/11/08 07:38:52;;;;;;;29.92;18.25;;;;;;;;;;5065605;28;21144;-68
2021/11/08 07:41:18;;;;;;;29.48;17.38;;;;;;;;;;5055315;28;20121;-68
2021/11/08 07:43:47;;;;;;;22.38;13.68;;;;;;;;;;5053550;28;20017;-68
2021/11/08 07:46:14;;;;;;;26.30;14.65;;;;;;;;;;5054762;28;20075;-68
2021/11/08 07:48:40;;;;;;;22.17;14.40;;;;;;;;;;5069329;28;20028;-69
2021/11/08 07:51:10;;;;;;;27.08;14.30;;;;;;;;;;5068526;28;20020;-68
2021/11/08 07:53:36;;;;;;;27.27;14.73;;;;;;;;;;5068234;28;20098;-68
2021/11/08 07:56:03;;;;;;;27.55;13.88;;;;;;;;;;5049224;28;20473;-67
2021/11/08 07:59:10;;;;;;;25.52;15.88;;;;;;;;;;5127918;27;20375;-68
2021/11/08 08:03:16;;;;;;;28.00;13.15;;;;;;;;;;5109868;27;20396;-69
2021/11/08 08:05:42;;;;;;;23.52;13.68;;;;;;;;;;5130683;27;20064;-70
2021/11/08 08:08:08;;;;;;;18.33;11.35;;;;;;;;;;5116476;28;20454;-69
2021/11/08 08:10:35;;;;;;;22.77;11.48;;;;;;;;;;5109004;28;20026;-69
2021/11/08 08:13:01;;;;;;;22.52;12.23;;;;;;;;;;5109565;28;20020;-70
2021/11/08 08:16:41;;;;;;;18.15;11.10;;;;;;;;;;5109168;27;20393;-69
2021/11/08 08:21:40;;;;;;;19.00;10.80;;;;;;;;;;5108260;27;20400;-68
2021/11/08 08:25:30;;;;;;;23.40;12.18;;;;;;;;;;5109127;27;20474;-67
2021/11/08 08:27:58;;;;;;;19.80;11.00;;;;;;;;;;5107252;28;20089;-68
2021/11/08 08:31:29;;;;;;;22.27;11.65;;;;;;;;;;5108629;27;20404;-66
2021/11/08 08:35:10;;;;;;;20.63;12.20;;;;;;;;;;5151021;27;20389;-66
2021/11/08 08:37:37;;;;;;;21.77;13.23;;;;;;;;;;5130878;28;20023;-68
2021/11/08 08:40:04;;;;;;;25.30;13.73;;;;;;;;;;5127363;28;20061;-66
2021/11/08 08:42:30;;;;;;;22.25;11.55;;;;;;;;;;5127199;28;20025;-65
2021/11/08 08:46:59;;;;;;;24.20;10.90;;;;;;;;;;5065746;28;20445;-65
2021/11/08 08:49:37;;;;;;;23.17;11.90;;;;;;;;;;5107251;27;20416;-66
2021/11/08 08:52:53;;;;;;;19.00;9.35;;;;;;;;;;5107403;27;20442;-66
2021/11/08 08:55:19;;;;;;;17.15;9.00;;;;;;;;;;5109741;28;20027;-66
2021/11/08 08:57:46;;;;;;;16.02;8.40;;;;;;;;;;5110832;28;20499;-68
2021/11/08 09:00:52;;;;;;;22.30;10.93;;;;;;;;;;5130219;27;20978;-67
2021/11/08 09:03:18;;;;;;;20.92;10.95;;;;;;;;;;5129894;28;20051;-66
2021/11/08 09:05:46;;;;;;;20.38;10.10;;;;;;;;;;5130339;28;20024;-66
2021/11/08 09:08:12;;;;;;;22.25;10.05;;;;;;;;;;5110993;28;20533;-66
2021/11/08 09:10:39;;;;;;;18.20;8.32;;;;;;;;;;5129867;28;20023;-66
2021/11/08 09:15:08;;;;;;;15.13;7.63;;;;;;;;;;5069657;28;20833;-67
2021/11/08 09:17:35;;;;;;;14.48;8.00;;;;;;;;;;5069661;28;20039;-65
2021/11/08 09:20:01;;;;;;;19.70;9.40;;;;;;;;;;5068595;28;20021;-67
2021/11/08 09:24:32;;;;;;;17.58;8.15;;;;;;;;;;5110753;27;20397;-66
2021/11/08 09:26:58;;;;;;;17.65;10.30;;;;;;;;;;5109203;28;20020;-67
2021/11/08 09:29:24;;;;;;;14.90;7.13;;;;;;;;;;5106731;28;20381;-66
2021/11/08 09:31:51;;;;;;;15.80;9.15;;;;;;;;;;5105711;28;20035;-65
2021/11/08 09:34:21;;;;;;;12.88;7.55;;;;;;;;;;5104357;28;20503;-67
2021/11/08 09:39:01;;;;;;;16.17;7.20;;;;;;;;;;5065862;28;20995;-66
2021/11/08 09:44:10;;;;;;;15.32;8.38;;;;;;;;;;5168311;27;20322;-65
2021/11/08 09:46:37;;;;;;;16.10;8.75;;;;;;;;;;5149110;27;20489;-66
2021/11/08 09:49:05;;;;;;;21.02;8.57;;;;;;;;;;5145372;27;20509;-69
2021/11/08 09:51:34;;;;;;;22.40;9.40;;;;;;;;;;5128695;27;20027;-68
2021/11/08 09:57:26;;;;;;;13.52;7.80;;;;;;;;;;5046792;28;20455;-66
2021/11/08 09:59:53;;;;;;;14.88;6.93;;;;;;;;;;5046253;28;20029;-66
2021/11/08 10:03:56;;;;;;;13.30;6.43;;;;;;;;;;5108729;27;20397;-65
2021/11/08 10:06:23;;;;;;;18.77;8.23;;;;;;;;;;5110025;28;20043;-66
2021/11/08 10:08:50;;;;;;;15.40;7.32;;;;;;;;;;5109630;28;20028;-66
2021/11/08 10:11:18;;;;;;;17.48;10.93;;;;;;;;;;5110000;28;20487;-66
2021/11/08 10:17:22;;;;;;;20.70;8.43;;;;;;;;;;5109607;27;20120;-66
2021/11/08 10:20:08;;;;;;;15.45;7.45;;;;;;;;;;5130762;27;20116;-67
2021/11/08 10:22:35;;;;;;;23.63;13.40;;;;;;;;;;5130522;28;20051;-68
2021/11/08 10:25:03;;;;;;;18.80;8.55;;;;;;;;;;5130929;28;20023;-67
2021/11/08 10:27:41;;;;;;;11.80;6.53;;;;;;;;;;5128990;28;20031;-67
2021/11/08 10:30:31;;;;;;;19.75;7.13;;;;;;;;;;5110272;27;20384;-67
2021/11/08 10:33:14;;;;;;;11.27;6.13;;;;;;;;;;5110315;28;20130;-66
2021/11/08 10:35:40;;;;;;;;;;;;;;;;;;5110848;28;20024;-66
2021/11/08 10:38:42;;;;;;;10.82;4.55;;;;;;;;;;5110837;27;20958;-65
2021/11/08 10:41:27;;;;;;;15.02;5.78;;;;;;;;;;5110597;28;20107;-67
2021/11/08 10:43:54;;;;;;;12.80;5.95;;;;;;;;;;5109087;28;20395;-67
2021/11/08 10:48:10;;;;;;;13.15;5.50;;;;;;;;;;5104284;27;20408;-67
2021/11/08 10:50:40;;;;;;;13.10;5.28;;;;;;;;;;5104893;28;20468;-65
2021/11/08 10:53:06;;;;;;;13.73;6.07;;;;;;;;;;5110143;28;20032;-66
2021/11/08 10:55:33;;;;;;;10.10;5.53;;;;;;;;;;5110211;28;20078;-66
2021/11/08 11:00:00;;;;;;;17.60;6.63;;;;;;;;;;5110250;27;20450;-66
2021/11/08 11:02:28;;;;;;;14.27;6.40;;;;;;;;;;5108887;28;20028;-67
2021/11/08 11:06:05;;;;;;;15.60;6.93;;;;;;;;;;5109924;27;20396;-67
2021/11/08 11:08:50;;;;;;;14.50;5.80;;;;;;;;;;5110625;27;20927;-68
2021/11/08 11:11:18;;;;;;;13.57;6.13;;;;;;;;;;5110379;28;20028;-68
2021/11/08 11:13:54;;;;;;;11.93;5.88;;;;;;;;;;5110273;28;20024;-68
2021/11/08 11:16:34;;;;;;;12.48;6.07;;;;;;;;;;5108847;28;20450;-67
2021/11/08 11:20:04;;;;;;;13.90;6.65;;;;;;;;;;5110485;27;20441;-65
2021/11/08 11:24:09;;;;;;;12.35;6.07;;;;;;;;;;5110863;27;20392;-65
2021/11/08 11:26:48;;;;;;;12.20;6.82;;;;;;;;;;5109435;28;20505;-67
2021/11/08 11:29:25;;;;;;;11.07;6.60;;;;;;;;;;5108722;28;20027;-67
2021/11/08 11:31:51;;;;;;;19.52;7.53;;;;;;;;;;5099307;28;20028;-67
2021/11/08 11:34:17;;;;;;;14.13;6.00;;;;;;;;;;5109364;28;20490;-67
2021/11/08 11:36:44;;;;;;;16.67;7.93;;;;;;;;;;5110278;28;20028;-67
2021/11/08 11:39:13;;;;;;;17.02;7.00;;;;;;;;;;5110757;28;20023;-67
2021/11/08 11:42:31;;;;;;;14.23;7.68;;;;;;;;;;5102244;27;20381;-68
2021/11/08 11:45:04;;;;;;;21.08;7.72;;;;;;;;;;5090592;28;20028;-66
2021/11/08 11:47:31;;;;;;;12.18;6.50;;;;;;;;;;5089774;28;20020;-66
2021/11/08 11:49:57;;;;;;;16.73;5.88;;;;;;;;;;5091145;28;20016;-65
2021/11/08 11:53:21;;;;;;;13.95;7.75;;;;;;;;;;5109598;27;20396;-64
2021/11/08 11:55:48;;;;;;;18.77;6.82;;;;;;;;;;5103965;28;20046;-65
2021/11/08 11:58:16;;;;;;;16.83;7.07;;;;;;;;;;5110585;28;20031;-66
2021/11/08 12:00:44;;;;;;;17.83;7.30;;;;;;;;;;5110379;28;20023;-66
2021/11/08 12:03:10;;;;;;;14.60;7.50;;;;;;;;;;5108814;28;20460;-67
2021/11/08 12:05:39;;;;;;;14.82;7.50;;;;;;;;;;5110125;28;20020;-66
2021/11/08 12:08:07;;;;;;;18.08;7.82;;;;;;;;;;5110143;28;20027;-66
2021/11/08 12:10:33;;;;;;;18.10;7.22;;;;;;;;;;5109204;28;20088;-65
2021/11/08 12:13:00;;;;;;;14.32;7.18;;;;;;;;;;5110487;28;20038;-66
2021/11/08 12:15:28;;;;;;;12.30;6.88;;;;;;;;;;5105987;28;20019;-66
2021/11/08 12:17:55;;;;;;;13.50;6.88;;;;;;;;;;5089362;28;20027;-67
2021/11/08 12:20:26;;;;;;;16.33;6.97;;;;;;;;;;5089960;28;20465;-67
2021/11/08 12:24:22;;;;;;;17.83;8.25;;;;;;;;;;5105086;27;20388;-67
2021/11/08 12:26:51;;;;;;;14.15;7.30;;;;;;;;;;5109940;28;20545;-65
2021/11/08 12:29:22;;;;;;;17.58;7.30;;;;;;;;;;5110134;28;20472;-66
2021/11/08 12:32:00;;;;;;;18.30;8.82;;;;;;;;;;5109589;28;20024;-65
2021/11/08 12:34:47;;;;;;;15.00;5.85;;;;;;;;;;5110976;27;20385;-65
2021/11/08 12:37:15;;;;;;;16.17;6.85;;;;;;;;;;5108199;28;20027;-66
2021/11/08 12:39:42;;;;;;;19.00;8.55;;;;;;;;;;5109898;28;20035;-67
2021/11/08 12:43:56;;;;;;;18.67;8.00;;;;;;;;;;5108099;27;20506;-66
2021/11/08 12:46:23;;;;;;;14.52;6.85;;;;;;;;;;5108773;28;20085;-66
2021/11/08 12:49:07;;;;;;;16.05;8.20;;;;;;;;;;5109427;27;20389;-66
2021/11/08 12:52:18;;;;;;;16.45;6.55;;;;;;;;;;5109081;27;20117;-66
2021/11/08 12:54:50;;;;;;;16.52;7.75;;;;;;;;;;5109532;28;20026;-66
2021/11/08 12:57:18;;;;;;;14.65;6.97;;;;;;;;;;5109746;28;20073;-66
2021/11/08 12:59:50;;;;;;;11.25;6.28;;;;;;;;;;5110458;28;20023;-66
2021/11/08 13:02:40;;;;;;;12.88;5.82;;;;;;;;;;5110473;28;20052;-67
2021/11/08 13:05:09;;;;;;;14.80;6.25;;;;;;;;;;5110884;28;20022;-67
2021/11/08 13:07:36;;;;;;;20.70;9.80;;;;;;;;;;5110369;28;20108;-66
2021/11/08 13:11:16;;;;;;;16.05;7.07;;;;;;;;;;5109780;27;20396;-66
2021/11/08 13:14:04;;;;;;;13.32;7.25;;;;;;;;;;5110450;28;20439;-66
2021/11/08 13:16:38;;;;;;;16.02;7.53;;;;;;;;;;5102044;28;20029;-66
2021/11/08 13:20:26;;;;;;;14.57;6.55;;;;;;;;;;5116693;27;20449;-65
2021/11/08 13:22:58;;;;;;;19.38;8.50;;;;;;;;;;5120372;28;20023;-66
2021/11/08 13:25:27;;;;;;;16.88;8.50;;;;;;;;;;5130742;28;20600;-65
2021/11/08 13:30:24;;;;;;;13.07;6.18;;;;;;;;;;5110736;27;20446;-66
2021/11/08 13:32:51;;;;;;;16.45;6.60;;;;;;;;;;5109789;28;20027;-66
2021/11/08 13:35:25;;;;;;;16.48;7.05;;;;;;;;;;5110341;28;20104;-66
2021/11/08 13:38:20;;;;;;;12.40;6.28;;;;;;;;;;5110618;27;20389;-66
2021/11/08 13:40:52;;;;;;;16.33;6.13;;;;;;;;;;5110055;28;20035;-66
2021/11/08 13:43:21;;;;;;;13.93;7.33;;;;;;;;;;5109376;28;20106;-65
2021/11/08 13:45:55;;;;;;;14.05;6.32;;;;;;;;;;5110499;28;20035;-65
2021/11/08 13:48:24;;;;;;;15.07;7.57;;;;;;;;;;5109764;28;20044;-68
2021/11/08 13:50:51;;;;;;;19.92;10.07;;;;;;;;;;5109304;28;20047;-67
2021/11/08 13:53:22;;;;;;;22.70;8.73;;;;;;;;;;5109718;28;20016;-67
2021/11/08 13:55:48;;;;;;;19.00;9.95;;;;;;;;;;5109037;28;20027;-66
2021/11/08 13:58:17;;;;;;;17.02;9.77;;;;;;;;;;5108703;28;20028;-67
2021/11/08 14:02:07;;;;;;;16.77;9.75;;;;;;;;;;5110296;27;20389;-67
2021/11/08 14:04:38;;;;;;;24.77;10.77;;;;;;;;;;5111003;28;20111;-67
2021/11/08 14:07:05;;;;;;;19.10;9.80;;;;;;;;;;5110839;28;20028;-67
2021/11/08 14:09:54;;;;;;;21.05;10.57;;;;;;;;;;5109298;27;20884;-69
2021/11/08 14:12:21;;;;;;;24.95;9.57;;;;;;;;;;5110667;28;20048;-67
2021/11/08 14:14:48;;;;;;;21.42;10.07;;;;;;;;;;5110516;28;20027;-68
2021/11/08 14:18:57;;;;;;;28.30;9.35;;;;;;;;;;5111077;27;20946;-67
2021/11/08 14:21:24;;;;;;;23.77;13.55;;;;;;;;;;5110650;28;20030;-68
2021/11/08 14:23:56;;;;;;;44.88;23.88;;;;;;;;;;5109640;28;20107;-67
2021/11/08 14:28:10;;;;;;;38.78;21.10;;;;;;;;;;5110686;27;20385;-69
2021/11/08 14:34:52;;;;;;;32.92;19.80;;;;;;;;;;5133879;27;20317;-69
2021/11/08 14:37:25;;;;;;;31.85;18.48;;;;;;;;;;5092617;28;20373;-69
2021/11/08 14:39:51;;;;;;;34.05;16.63;;;;;;;;;;5111317;28;20032;-67
2021/11/08 14:44:15;;;;;;;35.92;17.38;;;;;;;;;;5110807;27;20392;-67
2021/11/08 14:48:56;;;;;;;27.50;16.40;;;;;;;;;;5111078;27;20918;-68
2021/11/08 14:54:34;;;;;;;27.98;16.67;;;;;;;;;;5111470;27;20454;-68
2021/11/08 14:57:02;;;;;;;27.90;16.23;;;;;;;;;;5110611;28;20032;-67
2021/11/08 14:59:34;;;;;;;23.63;15.48;;;;;;;;;;5111123;28;20043;-67
2021/11/08 15:02:06;;;;;;;29.95;19.45;;;;;;;;;;5111117;28;20380;-67
2021/11/08 15:04:33;;;;;;;26.27;18.02;;;;;;;;;;5110652;28;20103;-68
2021/11/08 15:07:04;;;;;;;28.00;18.05;;;;;;;;;;5110956;28;20444;-68
2021/11/08 15:10:22;;;;;;;26.60;18.60;;;;;;;;;;5131455;27;20116;-67
2021/11/08 15:13:43;;;;;;;26.35;15.93;;;;;;;;;;5111928;27;20397;-69
2021/11/08 15:16:09;;;;;;;34.35;18.85;;;;;;;;;;5111026;28;20032;-68
2021/11/08 15:19:04;;;;;;;36.28;18.38;;;;;;;;;;5070355;28;20412;-67
2021/11/08 15:21:34;;;;;;;34.13;21.10;;;;;;;;;;5070588;28;20037;-67
2021/11/08 15:24:08;;;;;;;36.25;21.13;;;;;;;;;;5070480;28;20028;-67
2021/11/08 15:26:35;;;;;;;39.00;23.60;;;;;;;;;;5069985;28;20096;-68
2021/11/08 15:29:08;;;;;;;38.05;25.02;;;;;;;;;;5070339;28;20021;-67
2021/11/08 15:31:34;;;;;;;46.08;27.20;;;;;;;;;;5070068;28;20103;-67
2021/11/08 15:34:08;;;;;;;42.22;25.88;;;;;;;;;;5070246;28;20035;-68
2021/11/08 15:36:41;;;;;;;49.72;27.92;;;;;;;;;;5070204;28;20477;-68
2021/11/08 15:39:28;;;;;;;43.00;25.90;;;;;;;;;;5111079;27;20450;-66
2021/11/08 15:41:55;;;;;;;37.10;23.48;;;;;;;;;;5111365;28;20020;-68
2021/11/08 15:45:42;;;;;;;33.80;21.95;;;;;;;;;;5110806;27;20765;-67
2021/11/08 15:49:08;;;;;;;34.33;20.15;;;;;;;;;;5111918;27;20442;-68
2021/11/08 15:51:37;;;;;;;39.50;21.67;;;;;;;;;;5109794;28;20024;-67
2021/11/08 15:54:04;;;;;;;39.95;25.38;;;;;;;;;;5110686;28;20023;-67
2021/11/08 15:56:55;;;;;;;48.97;26.30;;;;;;;;;;5131621;27;20498;-67
2021/11/08 15:59:21;;;;;;;39.10;24.33;;;;;;;;;;5092909;28;20111;-67
2021/11/08 16:02:09;;;;;;;36.35;21.90;;;;;;;;;;5111932;27;20395;-68
2021/11/08 16:04:35;;;;;;;38.55;24.00;;;;;;;;;;5111151;28;20085;-67
2021/11/08 16:07:01;;;;;;;40.17;24.95;;;;;;;;;;5110600;28;20028;-67
2021/11/08 16:09:28;;;;;;;54.15;30.02;;;;;;;;;;5111161;28;20099;-67
2021/11/08 16:11:54;;;;;;;43.47;26.38;;;;;;;;;;5111111;28;20035;-67
2021/11/08 16:14:20;;;;;;;52.75;31.55;;;;;;;;;;5110487;28;20333;-68
2021/11/08 16:19:51;;;;;;;55.97;34.33;;;;;;;;;;5111874;27;20404;-68
2021/11/08 16:22:17;;;;;;;48.67;32.25;;;;;;;;;;5110645;28;20028;-66
2021/11/08 16:28:26;;;;;;;46.65;30.73;;;;;;;;;;5110850;27;20454;-68
2021/11/08 16:30:55;;;;;;;48.50;34.80;;;;;;;;;;5111048;28;20491;-68
2021/11/08 16:33:30;;;;;;;57.10;38.75;;;;;;;;;;5111204;28;20037;-68
2021/11/08 16:35:57;;;;;;;59.60;39.83;;;;;;;;;;5109269;28;20537;-68
2021/11/08 16:38:25;;;;;;;54.28;38.30;;;;;;;;;;5110867;28;20028;-66
2021/11/08 16:43:01;;;;;;;54.85;34.60;;;;;;;;;;5111244;27;20501;-68
2021/11/08 16:45:30;;;;;;;61.38;37.05;;;;;;;;;;5111061;28;20074;-68
2021/11/08 16:47:57;;;;;;;51.83;33.60;;;;;;;;;;5111092;28;20035;-69
2021/11/08 16:52:08;;;;;;;47.50;32.33;;;;;;;;;;5111214;27;20397;-68
2021/11/08 16:57:50;;;;;;;53.50;35.63;;;;;;;;;;5110765;27;20838;-68
2021/11/08 17:01:38;;;;;;;41.50;30.33;;;;;;;;;;5111189;27;20396;-68
2021/11/08 17:04:04;;;;;;;45.25;30.17;;;;;;;;;;5110566;28;20024;-68
2021/11/08 17:14:25;;;;;;;63.28;36.70;;;;;;;;;;5090781;28;20189;-67
2021/11/08 17:18:30;;;;;;;64.88;39.08;;;;;;;;;;5110923;27;20442;-68
2021/11/08 17:21:00;;;;;;;47.88;30.20;;;;;;;;;;5111041;28;20328;-67
2021/11/08 17:23:28;;;;;;;43.72;28.20;;;;;;;;;;5110954;28;20027;-66
2021/11/08 17:25:54;;;;;;;45.13;25.92;;;;;;;;;;5110710;28;20095;-67
2021/11/08 17:30:13;;;;;;;42.83;25.33;;;;;;;;;;5111200;27;20442;-69
2021/11/08 17:32:40;;;;;;;31.23;17.80;;;;;;;;;;5110683;28;20069;-67
2021/11/08 17:35:39;;;;;;;28.77;16.58;;;;;;;;;;5070886;28;20395;-68
2021/11/08 17:38:06;;;;;;;24.90;17.13;;;;;;;;;;5069984;28;20068;-68
2021/11/08 17:43:02;;;;;;;25.50;14.85;;;;;;;;;;5111278;27;20454;-67
2021/11/08 17:45:29;;;;;;;26.65;16.75;;;;;;;;;;5110520;28;20059;-66
2021/11/08 17:47:57;;;;;;;28.70;16.98;;;;;;;;;;5110621;28;20468;-66
2021/11/08 17:50:23;;;;;;;26.02;16.10;;;;;;;;;;5110632;28;20030;-66
2021/11/08 17:55:35;;;;;;;31.80;17.58;;;;;;;;;;5110595;27;20397;-66
2021/11/08 17:58:03;;;;;;;29.33;16.00;;;;;;;;;;5110558;28;20027;-67
2021/11/08 18:00:30;;;;;;;26.13;16.55;;;;;;;;;;5109053;28;20047;-66
2021/11/08 18:03:38;;;;;;;34.50;17.60;;;;;;;;;;5111449;27;20770;-67